sensor_id;sensor_type;location;lat;lon;timestamp;P1;durP1;ratioP1;P2;durP2;ratioP2
41653;SDS011;68687;52.030;7.110;2023-08-06T00:00:07;18.08;;;12.02;;
41653;SDS011;68687;52.030;7.110;2023-08-06T00:02:33;17.88;;;11.75;;
41653;SDS011;68687;52.030;7.110;2023-08-06T00:04:58;14.43;;;11.15;;
41653;SDS011;68687;52.030;7.110;2023-08-06T00:07:26;12.90;;;11.47;;
41653;SDS011;68687;52.030;7.110;2023-08-06T00:09:52;16.23;;;11.48;;
41653;SDS011;68687;52.030;7.110;2023-08-06T00:12:19;15.10;;;12.30;;
41653;SDS011;68687;52.030;7.110;2023-08-06T00:14:45;19.97;;;12.30;;
41653;SDS011;68687;52.030;7.110;2023-08-06T00:17:10;17.45;;;11.32;;
41653;SDS011;68687;52.030;7.110;2023-08-06T00:19:44;13.80;;;10.67;;
41653;SDS011;68687;52.030;7.110;2023-08-06T00:22:13;13.27;;;11.33;;
41653;SDS011;68687;52.030;7.110;2023-08-06T00:24:38;13.75;;;10.07;;
41653;SDS011;68687;52.030;7.110;2023-08-06T00:27:03;15.13;;;11.80;;
41653;SDS011;68687;52.030;7.110;2023-08-06T00:29:29;15.27;;;11.40;;
41653;SDS011;68687;52.030;7.110;2023-08-06T00:31:54;18.27;;;10.87;;
41653;SDS011;68687;52.030;7.110;2023-08-06T00:34:22;15.77;;;11.47;;
41653;SDS011;68687;52.030;7.110;2023-08-06T00:36:47;13.85;;;11.13;;
41653;SDS011;68687;52.030;7.110;2023-08-06T00:39:12;14.68;;;11.63;;
41653;SDS011;68687;52.030;7.110;2023-08-06T00:41:38;11.93;;;9.07;;
41653;SDS011;68687;52.030;7.110;2023-08-06T00:44:06;21.03;;;9.83;;
41653;SDS011;68687;52.030;7.110;2023-08-06T00:46:31;15.30;;;9.07;;
41653;SDS011;68687;52.030;7.110;2023-08-06T00:48:57;15.85;;;10.75;;
41653;SDS011;68687;52.030;7.110;2023-08-06T00:51:28;14.93;;;9.50;;
41653;SDS011;68687;52.030;7.110;2023-08-06T00:53:56;13.35;;;10.20;;
41653;SDS011;68687;52.030;7.110;2023-08-06T00:56:21;13.27;;;9.27;;
41653;SDS011;68687;52.030;7.110;2023-08-06T00:58:46;12.10;;;9.57;;
41653;SDS011;68687;52.030;7.110;2023-08-06T01:01:12;13.68;;;9.40;;
41653;SDS011;68687;52.030;7.110;2023-08-06T01:03:37;10.70;;;9.10;;
41653;SDS011;68687;52.030;7.110;2023-08-06T01:06:02;9.93;;;8.93;;
41653;SDS011;68687;52.030;7.110;2023-08-06T01:13:42;12.05;;;9.25;;
41653;SDS011;68687;52.030;7.110;2023-08-06T01:16:08;14.35;;;10.18;;
41653;SDS011;68687;52.030;7.110;2023-08-06T01:18:34;16.58;;;10.52;;
41653;SDS011;68687;52.030;7.110;2023-08-06T01:20:59;16.70;;;10.73;;
41653;SDS011;68687;52.030;7.110;2023-08-06T01:23:30;12.27;;;9.40;;
41653;SDS011;68687;52.030;7.110;2023-08-06T01:25:56;15.20;;;10.48;;
41653;SDS011;68687;52.030;7.110;2023-08-06T01:28:27;13.35;;;9.32;;
41653;SDS011;68687;52.030;7.110;2023-08-06T01:30:58;13.75;;;8.57;;
41653;SDS011;68687;52.030;7.110;2023-08-06T01:33:24;13.75;;;9.02;;
41653;SDS011;68687;52.030;7.110;2023-08-06T01:35:57;18.85;;;9.82;;
41653;SDS011;68687;52.030;7.110;2023-08-06T01:38:23;16.33;;;9.50;;
41653;SDS011;68687;52.030;7.110;2023-08-06T01:43:45;10.93;;;8.23;;
41653;SDS011;68687;52.030;7.110;2023-08-06T01:46:10;13.55;;;8.40;;
41653;SDS011;68687;52.030;7.110;2023-08-06T01:48:38;12.00;;;9.97;;
41653;SDS011;68687;52.030;7.110;2023-08-06T01:51:06;15.57;;;9.90;;
41653;SDS011;68687;52.030;7.110;2023-08-06T01:53:32;14.52;;;9.98;;
41653;SDS011;68687;52.030;7.110;2023-08-06T01:55:57;12.60;;;8.90;;
41653;SDS011;68687;52.030;7.110;2023-08-06T01:58:22;20.20;;;10.57;;
41653;SDS011;68687;52.030;7.110;2023-08-06T02:00:50;11.50;;;9.30;;
41653;SDS011;68687;52.030;7.110;2023-08-06T02:03:16;18.90;;;9.75;;
41653;SDS011;68687;52.030;7.110;2023-08-06T02:05:41;15.00;;;9.70;;
41653;SDS011;68687;52.030;7.110;2023-08-06T02:08:06;14.38;;;9.43;;
41653;SDS011;68687;52.030;7.110;2023-08-06T02:10:31;14.60;;;9.48;;
41653;SDS011;68687;52.030;7.110;2023-08-06T02:12:56;13.40;;;9.82;;
41653;SDS011;68687;52.030;7.110;2023-08-06T02:15:25;15.00;;;9.13;;
41653;SDS011;68687;52.030;7.110;2023-08-06T02:17:50;14.38;;;9.43;;
41653;SDS011;68687;52.030;7.110;2023-08-06T02:20:15;9.88;;;8.07;;
41653;SDS011;68687;52.030;7.110;2023-08-06T02:22:40;14.97;;;9.30;;
41653;SDS011;68687;52.030;7.110;2023-08-06T02:25:06;13.25;;;8.93;;
41653;SDS011;68687;52.030;7.110;2023-08-06T02:27:31;17.65;;;8.80;;
41653;SDS011;68687;52.030;7.110;2023-08-06T02:29:59;11.03;;;9.03;;
41653;SDS011;68687;52.030;7.110;2023-08-06T02:32:24;12.55;;;9.45;;
41653;SDS011;68687;52.030;7.110;2023-08-06T02:34:49;17.63;;;9.23;;
41653;SDS011;68687;52.030;7.110;2023-08-06T02:37:14;17.07;;;10.73;;
41653;SDS011;68687;52.030;7.110;2023-08-06T02:39:40;14.47;;;10.97;;
41653;SDS011;68687;52.030;7.110;2023-08-06T02:42:08;15.75;;;11.02;;
41653;SDS011;68687;52.030;7.110;2023-08-06T02:44:34;14.43;;;10.73;;
41653;SDS011;68687;52.030;7.110;2023-08-06T02:47:02;17.63;;;12.05;;
41653;SDS011;68687;52.030;7.110;2023-08-06T02:49:27;17.42;;;12.18;;
41653;SDS011;68687;52.030;7.110;2023-08-06T02:51:53;23.03;;;12.53;;
41653;SDS011;68687;52.030;7.110;2023-08-06T02:54:18;19.05;;;12.80;;
41653;SDS011;68687;52.030;7.110;2023-08-06T02:56:44;21.48;;;12.10;;
41653;SDS011;68687;52.030;7.110;2023-08-06T02:59:12;26.05;;;13.18;;
41653;SDS011;68687;52.030;7.110;2023-08-06T03:01:37;14.95;;;12.10;;
41653;SDS011;68687;52.030;7.110;2023-08-06T03:04:03;19.03;;;12.30;;
41653;SDS011;68687;52.030;7.110;2023-08-06T03:06:31;19.25;;;13.50;;
41653;SDS011;68687;52.030;7.110;2023-08-06T03:08:56;23.05;;;13.02;;
41653;SDS011;68687;52.030;7.110;2023-08-06T03:11:27;18.90;;;12.77;;
41653;SDS011;68687;52.030;7.110;2023-08-06T03:13:52;19.20;;;13.75;;
41653;SDS011;68687;52.030;7.110;2023-08-06T03:16:21;18.23;;;13.00;;
41653;SDS011;68687;52.030;7.110;2023-08-06T03:18:46;20.65;;;14.32;;
41653;SDS011;68687;52.030;7.110;2023-08-06T03:21:14;18.63;;;12.97;;
41653;SDS011;68687;52.030;7.110;2023-08-06T03:23:39;18.00;;;12.95;;
41653;SDS011;68687;52.030;7.110;2023-08-06T03:26:07;19.90;;;12.13;;
41653;SDS011;68687;52.030;7.110;2023-08-06T03:28:35;18.20;;;11.93;;
41653;SDS011;68687;52.030;7.110;2023-08-06T03:31:01;17.10;;;11.90;;
41653;SDS011;68687;52.030;7.110;2023-08-06T03:33:32;20.85;;;12.48;;
41653;SDS011;68687;52.030;7.110;2023-08-06T03:35:57;16.83;;;12.27;;
41653;SDS011;68687;52.030;7.110;2023-08-06T03:38:23;18.37;;;11.57;;
41653;SDS011;68687;52.030;7.110;2023-08-06T03:40:48;14.50;;;11.13;;
41653;SDS011;68687;52.030;7.110;2023-08-06T03:43:14;18.15;;;12.65;;
41653;SDS011;68687;52.030;7.110;2023-08-06T03:45:42;17.15;;;12.00;;
41653;SDS011;68687;52.030;7.110;2023-08-06T03:48:10;20.33;;;13.73;;
41653;SDS011;68687;52.030;7.110;2023-08-06T03:50:35;21.08;;;13.20;;
41653;SDS011;68687;52.030;7.110;2023-08-06T03:53:03;24.70;;;14.15;;
41653;SDS011;68687;52.030;7.110;2023-08-06T03:55:29;18.63;;;12.05;;
41653;SDS011;68687;52.030;7.110;2023-08-06T03:57:54;17.20;;;12.63;;
41653;SDS011;68687;52.030;7.110;2023-08-06T04:00:19;20.30;;;12.90;;
41653;SDS011;68687;52.030;7.110;2023-08-06T04:02:44;20.60;;;11.90;;
41653;SDS011;68687;52.030;7.110;2023-08-06T04:05:09;17.13;;;13.13;;
41653;SDS011;68687;52.030;7.110;2023-08-06T04:07:34;21.97;;;12.43;;
41653;SDS011;68687;52.030;7.110;2023-08-06T04:10:03;18.60;;;12.30;;
41653;SDS011;68687;52.030;7.110;2023-08-06T04:12:28;16.50;;;10.85;;
41653;SDS011;68687;52.030;7.110;2023-08-06T04:14:54;19.47;;;12.33;;
41653;SDS011;68687;52.030;7.110;2023-08-06T04:17:19;21.23;;;12.15;;
41653;SDS011;68687;52.030;7.110;2023-08-06T04:19:51;19.85;;;13.25;;
41653;SDS011;68687;52.030;7.110;2023-08-06T04:22:17;23.27;;;12.55;;
41653;SDS011;68687;52.030;7.110;2023-08-06T04:24:42;15.55;;;11.48;;
41653;SDS011;68687;52.030;7.110;2023-08-06T04:27:08;18.55;;;12.30;;
41653;SDS011;68687;52.030;7.110;2023-08-06T04:29:37;14.75;;;11.68;;
41653;SDS011;68687;52.030;7.110;2023-08-06T04:32:03;18.50;;;11.85;;
41653;SDS011;68687;52.030;7.110;2023-08-06T04:34:32;20.48;;;11.73;;
41653;SDS011;68687;52.030;7.110;2023-08-06T04:36:57;19.92;;;11.27;;
41653;SDS011;68687;52.030;7.110;2023-08-06T04:39:25;16.52;;;11.98;;
41653;SDS011;68687;52.030;7.110;2023-08-06T04:41:50;19.15;;;11.55;;
41653;SDS011;68687;52.030;7.110;2023-08-06T04:44:15;15.90;;;11.70;;
41653;SDS011;68687;52.030;7.110;2023-08-06T04:46:41;14.97;;;10.50;;
41653;SDS011;68687;52.030;7.110;2023-08-06T04:49:06;18.67;;;11.13;;
41653;SDS011;68687;52.030;7.110;2023-08-06T04:51:31;16.37;;;11.73;;
41653;SDS011;68687;52.030;7.110;2023-08-06T04:53:59;19.63;;;11.43;;
41653;SDS011;68687;52.030;7.110;2023-08-06T04:56:24;16.30;;;10.13;;
41653;SDS011;68687;52.030;7.110;2023-08-06T04:58:49;18.17;;;12.13;;
41653;SDS011;68687;52.030;7.110;2023-08-06T05:01:18;18.73;;;11.27;;
41653;SDS011;68687;52.030;7.110;2023-08-06T05:03:43;19.10;;;11.23;;
41653;SDS011;68687;52.030;7.110;2023-08-06T05:06:08;21.27;;;10.40;;
41653;SDS011;68687;52.030;7.110;2023-08-06T05:08:33;18.35;;;10.85;;
41653;SDS011;68687;52.030;7.110;2023-08-06T05:10:59;17.15;;;12.45;;
41653;SDS011;68687;52.030;7.110;2023-08-06T05:13:24;17.90;;;12.43;;
41653;SDS011;68687;52.030;7.110;2023-08-06T05:15:53;16.05;;;11.25;;
41653;SDS011;68687;52.030;7.110;2023-08-06T05:18:18;18.40;;;11.73;;
41653;SDS011;68687;52.030;7.110;2023-08-06T05:20:44;14.83;;;10.83;;
41653;SDS011;68687;52.030;7.110;2023-08-06T05:23:09;16.75;;;11.77;;
41653;SDS011;68687;52.030;7.110;2023-08-06T05:25:37;17.20;;;11.90;;
41653;SDS011;68687;52.030;7.110;2023-08-06T05:28:03;17.08;;;12.35;;
41653;SDS011;68687;52.030;7.110;2023-08-06T05:30:28;18.20;;;12.85;;
41653;SDS011;68687;52.030;7.110;2023-08-06T05:32:56;16.80;;;9.87;;
41653;SDS011;68687;52.030;7.110;2023-08-06T05:35:22;21.50;;;12.02;;
41653;SDS011;68687;52.030;7.110;2023-08-06T05:37:50;16.30;;;11.45;;
41653;SDS011;68687;52.030;7.110;2023-08-06T05:40:16;19.20;;;12.10;;
41653;SDS011;68687;52.030;7.110;2023-08-06T05:42:47;14.40;;;10.52;;
41653;SDS011;68687;52.030;7.110;2023-08-06T05:45:12;16.73;;;10.63;;
41653;SDS011;68687;52.030;7.110;2023-08-06T05:47:40;16.23;;;10.48;;
41653;SDS011;68687;52.030;7.110;2023-08-06T05:50:06;19.55;;;10.85;;
41653;SDS011;68687;52.030;7.110;2023-08-06T05:52:31;19.02;;;11.73;;
41653;SDS011;68687;52.030;7.110;2023-08-06T05:54:56;17.07;;;10.17;;
41653;SDS011;68687;52.030;7.110;2023-08-06T05:57:24;16.43;;;9.50;;
41653;SDS011;68687;52.030;7.110;2023-08-06T05:59:58;12.52;;;9.45;;
41653;SDS011;68687;52.030;7.110;2023-08-06T06:02:24;13.80;;;9.05;;
41653;SDS011;68687;52.030;7.110;2023-08-06T06:04:49;19.83;;;11.03;;
41653;SDS011;68687;52.030;7.110;2023-08-06T06:07:14;17.27;;;9.87;;
41653;SDS011;68687;52.030;7.110;2023-08-06T06:09:39;11.57;;;9.07;;
41653;SDS011;68687;52.030;7.110;2023-08-06T06:12:05;16.92;;;9.88;;
41653;SDS011;68687;52.030;7.110;2023-08-06T06:14:30;12.27;;;9.05;;
41653;SDS011;68687;52.030;7.110;2023-08-06T06:16:55;14.33;;;9.30;;
41653;SDS011;68687;52.030;7.110;2023-08-06T06:19:20;12.00;;;9.47;;
41653;SDS011;68687;52.030;7.110;2023-08-06T06:21:45;12.30;;;9.23;;
41653;SDS011;68687;52.030;7.110;2023-08-06T06:24:11;14.03;;;8.47;;
41653;SDS011;68687;52.030;7.110;2023-08-06T06:26:36;14.43;;;8.93;;
41653;SDS011;68687;52.030;7.110;2023-08-06T06:29:01;11.97;;;8.80;;
41653;SDS011;68687;52.030;7.110;2023-08-06T06:31:26;14.45;;;8.77;;
41653;SDS011;68687;52.030;7.110;2023-08-06T06:33:51;15.30;;;8.97;;
41653;SDS011;68687;52.030;7.110;2023-08-06T06:36:19;16.55;;;8.13;;
41653;SDS011;68687;52.030;7.110;2023-08-06T06:38:44;10.10;;;7.73;;
41653;SDS011;68687;52.030;7.110;2023-08-06T06:41:12;10.83;;;8.30;;
41653;SDS011;68687;52.030;7.110;2023-08-06T06:43:43;14.57;;;9.10;;
41653;SDS011;68687;52.030;7.110;2023-08-06T06:46:09;14.50;;;8.80;;
41653;SDS011;68687;52.030;7.110;2023-08-06T06:48:37;14.53;;;8.30;;
41653;SDS011;68687;52.030;7.110;2023-08-06T06:51:02;13.27;;;9.18;;
41653;SDS011;68687;52.030;7.110;2023-08-06T06:53:28;15.00;;;7.82;;
41653;SDS011;68687;52.030;7.110;2023-08-06T06:56:00;13.50;;;9.30;;
41653;SDS011;68687;52.030;7.110;2023-08-06T06:58:26;9.48;;;7.47;;
41653;SDS011;68687;52.030;7.110;2023-08-06T07:00:51;8.13;;;6.93;;
41653;SDS011;68687;52.030;7.110;2023-08-06T07:03:16;13.77;;;7.03;;
41653;SDS011;68687;52.030;7.110;2023-08-06T07:05:44;11.50;;;7.87;;
41653;SDS011;68687;52.030;7.110;2023-08-06T07:08:12;7.78;;;6.75;;
41653;SDS011;68687;52.030;7.110;2023-08-06T07:10:37;8.13;;;6.50;;
41653;SDS011;68687;52.030;7.110;2023-08-06T07:13:03;12.88;;;6.72;;
41653;SDS011;68687;52.030;7.110;2023-08-06T07:15:28;19.60;;;6.75;;
41653;SDS011;68687;52.030;7.110;2023-08-06T07:17:53;7.63;;;6.23;;
41653;SDS011;68687;52.030;7.110;2023-08-06T07:20:18;6.50;;;5.77;;
41653;SDS011;68687;52.030;7.110;2023-08-06T07:22:44;6.83;;;6.17;;
41653;SDS011;68687;52.030;7.110;2023-08-06T07:25:09;9.80;;;6.25;;
41653;SDS011;68687;52.030;7.110;2023-08-06T07:27:34;9.77;;;7.03;;
41653;SDS011;68687;52.030;7.110;2023-08-06T07:29:59;7.83;;;6.87;;
41653;SDS011;68687;52.030;7.110;2023-08-06T07:32:24;10.87;;;7.30;;
41653;SDS011;68687;52.030;7.110;2023-08-06T07:34:50;9.93;;;6.85;;
41653;SDS011;68687;52.030;7.110;2023-08-06T07:37:15;9.90;;;6.65;;
41653;SDS011;68687;52.030;7.110;2023-08-06T07:39:44;15.77;;;6.93;;
41653;SDS011;68687;52.030;7.110;2023-08-06T07:42:10;10.52;;;7.35;;
41653;SDS011;68687;52.030;7.110;2023-08-06T07:44:35;8.75;;;7.28;;
41653;SDS011;68687;52.030;7.110;2023-08-06T07:47:00;9.83;;;7.07;;
41653;SDS011;68687;52.030;7.110;2023-08-06T07:49:28;10.40;;;8.53;;
41653;SDS011;68687;52.030;7.110;2023-08-06T07:51:54;7.97;;;6.75;;
41653;SDS011;68687;52.030;7.110;2023-08-06T07:54:19;8.83;;;6.60;;
41653;SDS011;68687;52.030;7.110;2023-08-06T07:56:47;11.35;;;7.55;;
41653;SDS011;68687;52.030;7.110;2023-08-06T07:59:12;9.02;;;7.18;;
41653;SDS011;68687;52.030;7.110;2023-08-06T08:01:37;9.23;;;7.00;;
41653;SDS011;68687;52.030;7.110;2023-08-06T08:04:03;6.93;;;6.03;;
41653;SDS011;68687;52.030;7.110;2023-08-06T08:06:29;8.82;;;6.75;;
41653;SDS011;68687;52.030;7.110;2023-08-06T08:08:54;9.33;;;6.50;;
41653;SDS011;68687;52.030;7.110;2023-08-06T08:11:20;10.23;;;6.97;;
41653;SDS011;68687;52.030;7.110;2023-08-06T08:13:45;8.98;;;6.82;;
41653;SDS011;68687;52.030;7.110;2023-08-06T08:16:10;7.32;;;6.63;;
41653;SDS011;68687;52.030;7.110;2023-08-06T08:18:35;13.20;;;6.53;;
41653;SDS011;68687;52.030;7.110;2023-08-06T08:21:03;12.40;;;6.93;;
41653;SDS011;68687;52.030;7.110;2023-08-06T08:23:31;8.07;;;7.22;;
41653;SDS011;68687;52.030;7.110;2023-08-06T08:25:57;7.80;;;6.75;;
41653;SDS011;68687;52.030;7.110;2023-08-06T08:28:22;9.17;;;7.33;;
41653;SDS011;68687;52.030;7.110;2023-08-06T08:30:47;12.20;;;6.50;;
41653;SDS011;68687;52.030;7.110;2023-08-06T08:33:13;8.57;;;6.60;;
41653;SDS011;68687;52.030;7.110;2023-08-06T08:35:41;8.60;;;6.53;;
41653;SDS011;68687;52.030;7.110;2023-08-06T08:38:06;8.70;;;6.95;;
41653;SDS011;68687;52.030;7.110;2023-08-06T08:40:32;8.37;;;6.63;;
41653;SDS011;68687;52.030;7.110;2023-08-06T08:42:58;8.05;;;7.22;;
41653;SDS011;68687;52.030;7.110;2023-08-06T08:45:23;10.50;;;7.80;;
41653;SDS011;68687;52.030;7.110;2023-08-06T08:47:51;9.77;;;7.10;;
41653;SDS011;68687;52.030;7.110;2023-08-06T08:50:19;10.53;;;7.83;;
41653;SDS011;68687;52.030;7.110;2023-08-06T08:52:45;11.73;;;8.00;;
41653;SDS011;68687;52.030;7.110;2023-08-06T08:55:11;11.15;;;7.80;;
41653;SDS011;68687;52.030;7.110;2023-08-06T08:57:36;10.50;;;7.55;;
41653;SDS011;68687;52.030;7.110;2023-08-06T09:00:02;7.73;;;6.93;;
41653;SDS011;68687;52.030;7.110;2023-08-06T09:02:27;9.55;;;7.13;;
41653;SDS011;68687;52.030;7.110;2023-08-06T09:04:54;12.07;;;7.50;;
41653;SDS011;68687;52.030;7.110;2023-08-06T09:07:23;13.63;;;7.60;;
41653;SDS011;68687;52.030;7.110;2023-08-06T09:09:55;12.45;;;7.78;;
41653;SDS011;68687;52.030;7.110;2023-08-06T09:12:21;17.20;;;7.45;;
41653;SDS011;68687;52.030;7.110;2023-08-06T09:14:47;9.13;;;7.07;;
41653;SDS011;68687;52.030;7.110;2023-08-06T09:17:12;9.55;;;7.45;;
41653;SDS011;68687;52.030;7.110;2023-08-06T09:19:37;11.40;;;6.90;;
41653;SDS011;68687;52.030;7.110;2023-08-06T09:22:02;7.43;;;6.53;;
41653;SDS011;68687;52.030;7.110;2023-08-06T09:24:28;7.47;;;6.17;;
41653;SDS011;68687;52.030;7.110;2023-08-06T09:26:56;10.00;;;7.07;;
41653;SDS011;68687;52.030;7.110;2023-08-06T09:29:21;8.70;;;7.32;;
41653;SDS011;68687;52.030;7.110;2023-08-06T09:31:47;6.80;;;6.10;;
41653;SDS011;68687;52.030;7.110;2023-08-06T09:39:46;11.30;;;6.47;;
41653;SDS011;68687;52.030;7.110;2023-08-06T09:42:14;32.58;;;8.70;;
41653;SDS011;68687;52.030;7.110;2023-08-06T09:44:43;7.07;;;6.28;;
41653;SDS011;68687;52.030;7.110;2023-08-06T09:47:15;7.25;;;6.20;;
41653;SDS011;68687;52.030;7.110;2023-08-06T09:49:42;8.63;;;6.55;;
41653;SDS011;68687;52.030;7.110;2023-08-06T09:52:11;8.88;;;6.57;;
41653;SDS011;68687;52.030;7.110;2023-08-06T09:54:39;12.55;;;6.43;;
41653;SDS011;68687;52.030;7.110;2023-08-06T09:57:05;10.18;;;6.70;;
41653;SDS011;68687;52.030;7.110;2023-08-06T09:59:30;9.32;;;6.57;;
41653;SDS011;68687;52.030;7.110;2023-08-06T10:01:59;11.75;;;6.55;;
41653;SDS011;68687;52.030;7.110;2023-08-06T10:04:24;8.20;;;6.80;;
41653;SDS011;68687;52.030;7.110;2023-08-06T10:06:49;9.73;;;6.88;;
41653;SDS011;68687;52.030;7.110;2023-08-06T10:09:15;8.23;;;5.97;;
41653;SDS011;68687;52.030;7.110;2023-08-06T10:11:40;10.85;;;6.20;;
41653;SDS011;68687;52.030;7.110;2023-08-06T10:14:08;11.30;;;6.70;;
41653;SDS011;68687;52.030;7.110;2023-08-06T10:16:35;9.07;;;6.75;;
41653;SDS011;68687;52.030;7.110;2023-08-06T10:19:01;10.90;;;6.45;;
41653;SDS011;68687;52.030;7.110;2023-08-06T10:21:26;7.97;;;5.57;;
41653;SDS011;68687;52.030;7.110;2023-08-06T10:23:55;8.45;;;6.40;;
41653;SDS011;68687;52.030;7.110;2023-08-06T10:26:24;6.75;;;5.82;;
41653;SDS011;68687;52.030;7.110;2023-08-06T10:28:49;9.20;;;5.93;;
41653;SDS011;68687;52.030;7.110;2023-08-06T10:31:15;7.60;;;5.73;;
41653;SDS011;68687;52.030;7.110;2023-08-06T10:33:40;7.10;;;5.93;;
41653;SDS011;68687;52.030;7.110;2023-08-06T10:36:06;9.07;;;6.50;;
41653;SDS011;68687;52.030;7.110;2023-08-06T10:38:34;8.25;;;5.50;;
41653;SDS011;68687;52.030;7.110;2023-08-06T10:41:02;6.60;;;5.72;;
41653;SDS011;68687;52.030;7.110;2023-08-06T10:43:36;7.10;;;5.93;;
41653;SDS011;68687;52.030;7.110;2023-08-06T10:46:03;5.85;;;5.28;;
41653;SDS011;68687;52.030;7.110;2023-08-06T10:48:36;6.25;;;4.60;;
41653;SDS011;68687;52.030;7.110;2023-08-06T10:51:01;5.22;;;4.72;;
41653;SDS011;68687;52.030;7.110;2023-08-06T10:53:27;6.30;;;4.85;;
41653;SDS011;68687;52.030;7.110;2023-08-06T10:55:52;6.80;;;5.60;;
41653;SDS011;68687;52.030;7.110;2023-08-06T10:58:17;6.72;;;4.95;;
41653;SDS011;68687;52.030;7.110;2023-08-06T11:00:42;5.00;;;4.50;;
41653;SDS011;68687;52.030;7.110;2023-08-06T11:03:08;5.60;;;4.60;;
41653;SDS011;68687;52.030;7.110;2023-08-06T11:05:33;5.53;;;4.78;;
41653;SDS011;68687;52.030;7.110;2023-08-06T11:07:58;9.47;;;4.67;;
41653;SDS011;68687;52.030;7.110;2023-08-06T11:10:23;6.33;;;4.40;;
41653;SDS011;68687;52.030;7.110;2023-08-06T11:12:49;12.75;;;4.75;;
41653;SDS011;68687;52.030;7.110;2023-08-06T11:15:14;4.47;;;4.07;;
41653;SDS011;68687;52.030;7.110;2023-08-06T11:17:40;6.33;;;3.87;;
41653;SDS011;68687;52.030;7.110;2023-08-06T11:20:05;8.07;;;4.25;;
41653;SDS011;68687;52.030;7.110;2023-08-06T11:22:31;6.03;;;4.07;;
41653;SDS011;68687;52.030;7.110;2023-08-06T11:24:56;6.50;;;4.57;;
41653;SDS011;68687;52.030;7.110;2023-08-06T11:27:21;8.98;;;5.32;;
41653;SDS011;68687;52.030;7.110;2023-08-06T11:29:46;9.30;;;5.87;;
41653;SDS011;68687;52.030;7.110;2023-08-06T11:32:12;6.85;;;5.43;;
41653;SDS011;68687;52.030;7.110;2023-08-06T11:34:38;4.38;;;3.97;;
41653;SDS011;68687;52.030;7.110;2023-08-06T11:37:03;6.60;;;4.05;;
41653;SDS011;68687;52.030;7.110;2023-08-06T11:39:31;6.85;;;4.13;;
41653;SDS011;68687;52.030;7.110;2023-08-06T11:41:56;5.50;;;3.88;;
41653;SDS011;68687;52.030;7.110;2023-08-06T11:44:22;5.88;;;4.35;;
41653;SDS011;68687;52.030;7.110;2023-08-06T11:46:54;4.90;;;3.67;;
41653;SDS011;68687;52.030;7.110;2023-08-06T11:52:20;5.38;;;4.30;;
41653;SDS011;68687;52.030;7.110;2023-08-06T11:54:46;5.32;;;3.97;;
41653;SDS011;68687;52.030;7.110;2023-08-06T11:57:12;6.13;;;4.63;;
41653;SDS011;68687;52.030;7.110;2023-08-06T11:59:38;4.30;;;3.90;;
41653;SDS011;68687;52.030;7.110;2023-08-06T12:02:04;3.80;;;3.50;;
41653;SDS011;68687;52.030;7.110;2023-08-06T12:04:56;4.55;;;4.13;;
41653;SDS011;68687;52.030;7.110;2023-08-06T12:07:17;4.40;;;4.00;;
41653;SDS011;68687;52.030;7.110;2023-08-06T12:09:42;6.27;;;4.27;;
41653;SDS011;68687;52.030;7.110;2023-08-06T12:12:07;4.27;;;3.97;;
41653;SDS011;68687;52.030;7.110;2023-08-06T12:14:33;6.17;;;4.27;;
41653;SDS011;68687;52.030;7.110;2023-08-06T12:16:58;6.90;;;4.47;;
41653;SDS011;68687;52.030;7.110;2023-08-06T12:19:23;4.30;;;3.40;;
41653;SDS011;68687;52.030;7.110;2023-08-06T12:21:48;8.27;;;3.60;;
41653;SDS011;68687;52.030;7.110;2023-08-06T12:24:13;6.67;;;3.90;;
41653;SDS011;68687;52.030;7.110;2023-08-06T12:26:39;6.70;;;4.10;;
41653;SDS011;68687;52.030;7.110;2023-08-06T12:29:04;7.03;;;4.63;;
41653;SDS011;68687;52.030;7.110;2023-08-06T12:31:29;10.77;;;5.07;;
41653;SDS011;68687;52.030;7.110;2023-08-06T12:33:54;5.13;;;4.63;;
41653;SDS011;68687;52.030;7.110;2023-08-06T12:36:19;5.20;;;4.70;;
41653;SDS011;68687;52.030;7.110;2023-08-06T12:38:45;8.60;;;4.80;;
41653;SDS011;68687;52.030;7.110;2023-08-06T12:41:10;7.60;;;5.03;;
41653;SDS011;68687;52.030;7.110;2023-08-06T12:43:35;7.37;;;5.20;;
41653;SDS011;68687;52.030;7.110;2023-08-06T12:46:00;8.30;;;5.23;;
41653;SDS011;68687;52.030;7.110;2023-08-06T12:48:25;7.17;;;5.17;;
41653;SDS011;68687;52.030;7.110;2023-08-06T12:50:50;6.00;;;4.97;;
41653;SDS011;68687;52.030;7.110;2023-08-06T12:53:16;8.07;;;5.93;;
41653;SDS011;68687;52.030;7.110;2023-08-06T12:55:41;7.37;;;5.83;;
41653;SDS011;68687;52.030;7.110;2023-08-06T12:58:07;7.32;;;5.90;;
41653;SDS011;68687;52.030;7.110;2023-08-06T13:00:32;8.07;;;6.57;;
41653;SDS011;68687;52.030;7.110;2023-08-06T13:02:59;7.05;;;5.65;;
41653;SDS011;68687;52.030;7.110;2023-08-06T13:05:24;7.40;;;5.03;;
41653;SDS011;68687;52.030;7.110;2023-08-06T13:07:49;7.23;;;5.30;;
41653;SDS011;68687;52.030;7.110;2023-08-06T13:10:14;8.05;;;6.30;;
41653;SDS011;68687;52.030;7.110;2023-08-06T13:12:40;6.35;;;5.40;;
41653;SDS011;68687;52.030;7.110;2023-08-06T13:15:05;9.57;;;6.07;;
41653;SDS011;68687;52.030;7.110;2023-08-06T13:17:30;8.95;;;5.50;;
41653;SDS011;68687;52.030;7.110;2023-08-06T13:19:56;7.43;;;5.55;;
41653;SDS011;68687;52.030;7.110;2023-08-06T13:22:21;6.37;;;4.83;;
41653;SDS011;68687;52.030;7.110;2023-08-06T13:24:46;6.17;;;4.70;;
41653;SDS011;68687;52.030;7.110;2023-08-06T13:27:11;5.45;;;4.07;;
41653;SDS011;68687;52.030;7.110;2023-08-06T13:29:36;2.77;;;2.57;;
41653;SDS011;68687;52.030;7.110;2023-08-06T13:32:02;3.80;;;2.92;;
41653;SDS011;68687;52.030;7.110;2023-08-06T13:34:27;4.65;;;3.53;;
41653;SDS011;68687;52.030;7.110;2023-08-06T13:36:52;4.50;;;4.10;;
41653;SDS011;68687;52.030;7.110;2023-08-06T13:39:17;4.43;;;4.03;;
41653;SDS011;68687;52.030;7.110;2023-08-06T13:41:43;4.10;;;3.70;;
41653;SDS011;68687;52.030;7.110;2023-08-06T13:44:08;4.90;;;4.40;;
41653;SDS011;68687;52.030;7.110;2023-08-06T13:46:34;5.30;;;4.80;;
41653;SDS011;68687;52.030;7.110;2023-08-06T13:48:59;5.03;;;4.40;;
41653;SDS011;68687;52.030;7.110;2023-08-06T13:51:25;7.47;;;6.00;;
41653;SDS011;68687;52.030;7.110;2023-08-06T13:53:50;6.32;;;5.18;;
41653;SDS011;68687;52.030;7.110;2023-08-06T13:56:17;7.32;;;5.97;;
41653;SDS011;68687;52.030;7.110;2023-08-06T13:58:42;10.40;;;7.75;;
41653;SDS011;68687;52.030;7.110;2023-08-06T14:01:09;10.93;;;8.20;;
41653;SDS011;68687;52.030;7.110;2023-08-06T14:03:34;11.30;;;8.63;;
41653;SDS011;68687;52.030;7.110;2023-08-06T14:05:59;11.27;;;7.40;;
41653;SDS011;68687;52.030;7.110;2023-08-06T14:08:25;6.57;;;5.93;;
41653;SDS011;68687;52.030;7.110;2023-08-06T14:10:50;7.38;;;6.00;;
41653;SDS011;68687;52.030;7.110;2023-08-06T14:13:15;6.40;;;4.95;;
41653;SDS011;68687;52.030;7.110;2023-08-06T14:15:41;6.25;;;4.30;;
41653;SDS011;68687;52.030;7.110;2023-08-06T14:18:06;6.60;;;4.67;;
41653;SDS011;68687;52.030;7.110;2023-08-06T14:20:33;4.38;;;3.95;;
41653;SDS011;68687;52.030;7.110;2023-08-06T14:22:58;5.00;;;4.00;;
41653;SDS011;68687;52.030;7.110;2023-08-06T14:25:27;4.47;;;3.80;;
41653;SDS011;68687;52.030;7.110;2023-08-06T14:27:52;6.13;;;4.22;;
41653;SDS011;68687;52.030;7.110;2023-08-06T14:30:17;4.40;;;4.00;;
41653;SDS011;68687;52.030;7.110;2023-08-06T14:32:43;4.97;;;4.47;;
41653;SDS011;68687;52.030;7.110;2023-08-06T14:35:09;5.18;;;4.68;;
41653;SDS011;68687;52.030;7.110;2023-08-06T14:37:35;7.60;;;6.50;;
41653;SDS011;68687;52.030;7.110;2023-08-06T14:40:00;8.77;;;5.82;;
41653;SDS011;68687;52.030;7.110;2023-08-06T14:42:25;8.90;;;6.68;;
41653;SDS011;68687;52.030;7.110;2023-08-06T14:44:51;7.88;;;5.63;;